createdAt,value
2018-01-18T09:48:22.395Z,4.10
2018-01-18T09:50:50.757Z,4.00
2018-01-18T09:53:19.163Z,4.00
2018-01-18T09:55:55.292Z,4.00
2018-01-18T09:58:31.094Z,4.00
2018-01-18T10:00:59.567Z,4.00
2018-01-18T10:03:27.938Z,4.00
2018-01-18T10:05:56.345Z,4.00
2018-01-18T10:08:24.778Z,4.10
2018-01-18T10:10:53.167Z,4.20
2018-01-18T10:13:29.814Z,4.60
2018-01-18T10:15:59.030Z,4.80
2018-01-18T10:18:27.416Z,4.70
2018-01-18T10:20:56.536Z,4.70
2018-01-18T10:23:28.293Z,4.70
2018-01-18T10:25:56.661Z,4.70
2018-01-18T10:28:25.080Z,4.50
2018-01-18T10:30:53.428Z,4.40
2018-01-18T10:33:21.892Z,4.30
2018-01-18T10:35:58.336Z,4.30
2018-01-18T10:38:34.121Z,4.40
2018-01-18T10:41:02.772Z,4.40
2018-01-18T10:43:31.168Z,4.50
2018-01-18T10:46:00.338Z,4.80
2018-01-18T10:48:29.742Z,4.80
2018-01-18T10:50:58.140Z,4.80
2018-01-18T10:53:26.502Z,5.00
2018-01-18T10:55:54.943Z,5.10
2018-01-18T10:58:24.118Z,5.00
2018-01-18T11:00:52.535Z,5.00
2018-01-18T11:03:22.039Z,5.00
2018-01-18T11:05:50.463Z,5.00
2018-01-18T11:08:18.840Z,4.70
2018-01-18T11:10:47.578Z,4.80
2018-01-18T11:13:15.933Z,4.80
2018-01-18T11:15:45.066Z,4.90
2018-01-18T11:18:21.233Z,4.80
2018-01-18T11:20:49.853Z,4.90
2018-01-18T11:23:19.549Z,5.00
2018-01-18T11:25:48.202Z,5.00
2018-01-18T11:28:23.756Z,5.10
2018-01-18T11:30:52.145Z,5.10
2018-01-18T11:33:20.604Z,5.00
2018-01-18T11:35:48.998Z,4.90
2018-01-18T11:38:17.407Z,4.80
2018-01-18T11:40:46.723Z,5.00
2018-01-18T11:43:15.861Z,5.10
2018-01-18T11:45:44.270Z,5.10
2018-01-18T11:48:13.678Z,5.10
2018-01-18T11:50:42.859Z,5.10
2018-01-18T11:53:11.230Z,5.10
2018-01-18T11:55:39.712Z,5.20
2018-01-18T11:58:08.838Z,5.40
2018-01-18T12:00:37.219Z,5.40
2018-01-18T12:03:13.199Z,5.30
2018-01-18T12:05:45.373Z,5.30
2018-01-18T12:08:13.757Z,5.40
2018-01-18T12:10:42.471Z,5.60
2018-01-18T12:13:11.776Z,6.20
2018-01-18T12:15:40.961Z,6.00
2018-01-18T12:18:09.348Z,6.00
2018-01-18T12:20:37.793Z,5.80
2018-01-18T12:23:06.172Z,5.50
2018-01-18T12:25:34.562Z,5.60
2018-01-18T12:28:03.054Z,5.70
2018-01-18T12:30:31.452Z,5.60
2018-01-18T12:32:59.842Z,5.60
2018-01-18T12:35:28.304Z,5.50
2018-01-18T12:37:57.442Z,5.60
2018-01-18T12:40:25.805Z,5.60
2018-01-18T12:42:54.229Z,5.60
2018-01-18T12:45:25.363Z,5.60
2018-01-18T12:47:53.729Z,5.60
2018-01-18T12:50:29.321Z,5.60
2018-01-18T12:52:57.822Z,5.50
2018-01-18T12:55:26.207Z,5.30
2018-01-18T12:57:55.364Z,5.30
2018-01-18T13:00:24.585Z,5.20
2018-01-18T13:02:53.030Z,5.20
2018-01-18T13:05:21.433Z,5.10
2018-01-18T13:07:49.885Z,5.00
2018-01-18T13:10:18.318Z,5.00
2018-01-18T13:12:47.464Z,4.90
2018-01-18T13:15:16.365Z,4.90
2018-01-18T13:17:44.761Z,5.00
2018-01-18T13:20:13.204Z,5.10
2018-01-18T13:22:41.723Z,5.10
2018-01-18T13:25:10.102Z,5.20
2018-01-18T13:27:38.553Z,5.30
2018-01-18T13:30:07.299Z,5.40
2018-01-18T13:32:35.715Z,5.60
2018-01-18T13:35:04.475Z,5.60
2018-01-18T13:37:32.875Z,5.70
2018-01-18T13:40:02.079Z,6.50
2018-01-18T13:42:30.554Z,6.50
2018-01-18T13:44:58.958Z,6.70
2018-01-18T13:47:36.033Z,6.60
2018-01-18T13:50:11.791Z,6.60
2018-01-18T13:52:40.303Z,6.40
2018-01-18T13:55:09.033Z,6.50
2018-01-18T13:57:37.623Z,6.50
2018-01-18T14:00:06.873Z,7.00
2018-01-18T14:02:35.432Z,7.00
2018-01-18T14:05:03.824Z,7.30
2018-01-18T14:07:32.176Z,7.40
2018-01-18T14:10:00.654Z,7.50
2018-01-18T14:12:29.262Z,7.30
2018-01-18T14:15:00.640Z,7.00
2018-01-18T14:17:30.943Z,6.80
2018-01-18T14:19:59.339Z,6.70
2018-01-18T14:22:27.749Z,6.50
2018-01-18T14:24:57.106Z,6.50
2018-01-18T14:27:25.651Z,6.50
2018-01-18T14:29:54.473Z,6.50
2018-01-18T14:32:23.046Z,6.50
2018-01-18T14:34:51.497Z,6.50
2018-01-18T14:37:20.618Z,6.50
2018-01-18T14:39:49.134Z,6.50
2018-01-18T14:42:17.541Z,6.50
2018-01-18T14:44:46.082Z,6.50
2018-01-18T14:47:15.252Z,6.50
2018-01-18T14:49:45.254Z,6.60
2018-01-18T14:52:13.625Z,6.60
2018-01-18T14:54:49.810Z,6.70
2018-01-18T14:57:19.419Z,6.90
2018-01-18T14:59:48.786Z,6.80
2018-01-18T15:02:17.337Z,6.80
2018-01-18T15:04:46.509Z,6.90
2018-01-18T15:07:15.792Z,6.80
2018-01-18T15:09:44.176Z,7.10
2018-01-18T15:12:13.048Z,6.90
2018-01-18T15:14:41.748Z,6.90
2018-01-18T15:17:10.429Z,6.80
2018-01-18T15:19:39.193Z,6.70
2018-01-18T15:22:09.456Z,6.50
2018-01-18T15:24:37.974Z,6.50
2018-01-18T15:27:07.139Z,6.50
2018-01-18T15:29:39.255Z,6.50
2018-01-18T15:32:07.642Z,6.50
2018-01-18T15:34:36.035Z,6.50
2018-01-18T15:37:05.289Z,6.40
2018-01-18T15:39:33.774Z,6.40
2018-01-18T15:42:02.132Z,6.40
2018-01-18T15:44:30.603Z,6.40
2018-01-18T15:46:59.129Z,6.40
2018-01-18T15:49:27.641Z,6.40
2018-01-18T15:51:56.336Z,6.50
2018-01-18T15:54:24.836Z,6.50
2018-01-18T15:56:54.082Z,6.50
2018-01-18T15:59:23.371Z,6.60
2018-01-18T16:01:52.913Z,6.60
2018-01-18T16:04:21.286Z,6.60
2018-01-18T16:06:50.511Z,6.70
2018-01-18T16:09:19.018Z,6.70
2018-01-18T16:11:48.158Z,6.80
2018-01-18T16:14:16.692Z,6.80
2018-01-18T16:16:45.109Z,6.90
2018-01-18T16:19:13.586Z,6.90
2018-01-18T16:21:43.089Z,6.90
2018-01-18T16:24:11.610Z,6.90
2018-01-18T16:26:40.103Z,6.90
2018-01-18T16:29:08.855Z,6.90
2018-01-18T16:31:37.361Z,6.90
2018-01-18T16:34:05.778Z,6.90
2018-01-18T16:36:34.358Z,7.00
2018-01-18T16:39:04.543Z,7.00
2018-01-18T16:41:33.775Z,7.00
2018-01-18T16:44:02.469Z,7.00
2018-01-18T16:46:31.717Z,7.00
2018-01-18T16:49:00.161Z,7.00
2018-01-18T16:51:28.682Z,7.00
2018-01-18T16:53:57.930Z,6.90
2018-01-18T16:56:27.456Z,6.90
2018-01-18T16:58:57.171Z,6.90
2018-01-18T17:01:26.522Z,6.70
2018-01-18T17:03:55.467Z,6.70
2018-01-18T17:06:24.302Z,6.80
2018-01-18T17:08:52.827Z,6.70
2018-01-18T17:11:22.075Z,6.70
2018-01-18T17:13:57.743Z,6.70
2018-01-18T17:16:29.472Z,6.80
2018-01-18T17:18:57.884Z,6.90
2018-01-18T17:21:26.305Z,6.90
2018-01-18T17:23:55.019Z,6.90
2018-01-18T17:26:23.472Z,6.90
2018-01-18T17:28:51.840Z,7.00
2018-01-18T17:31:20.259Z,7.00
2018-01-18T17:33:48.859Z,6.90
2018-01-18T17:36:18.059Z,7.00
2018-01-18T17:38:53.691Z,6.90
2018-01-18T17:41:23.048Z,6.90
2018-01-18T17:43:51.429Z,6.90
2018-01-18T17:46:19.844Z,6.90
2018-01-18T17:48:48.270Z,6.70
2018-01-18T17:51:16.714Z,6.50
2018-01-18T17:53:45.893Z,6.20
2018-01-18T17:56:14.383Z,6.20
2018-01-18T17:58:42.799Z,6.10
2018-01-18T18:01:12.088Z,6.00
2018-01-18T18:03:40.660Z,6.00
2018-01-18T18:06:09.101Z,6.10
2018-01-18T18:08:38.821Z,6.10
2018-01-18T18:11:08.555Z,6.00
2018-01-18T18:13:36.973Z,6.10
2018-01-18T18:16:06.151Z,6.10
2018-01-18T18:18:35.488Z,6.00
2018-01-18T18:21:04.799Z,6.00
2018-01-18T18:23:34.029Z,5.90
2018-01-18T18:26:02.457Z,5.90
2018-01-18T18:28:30.845Z,5.90
2018-01-18T18:30:59.313Z,5.90
2018-01-18T18:33:27.818Z,5.90
2018-01-18T18:35:56.176Z,6.00
2018-01-18T18:38:24.594Z,5.90
2018-01-18T18:40:53.129Z,5.80
2018-01-18T18:43:21.600Z,5.60
2018-01-18T18:45:50.252Z,5.60
2018-01-18T18:48:19.462Z,5.40
2018-01-18T18:50:47.962Z,5.40
2018-01-18T18:53:16.629Z,5.30
2018-01-18T18:55:45.223Z,5.30
2018-01-18T18:58:14.823Z,5.30
2018-01-18T19:00:43.222Z,5.30
2018-01-18T19:03:27.995Z,5.30
2018-01-18T19:05:56.420Z,5.40
2018-01-18T19:08:24.790Z,5.40
2018-01-18T19:11:01.824Z,5.40
2018-01-18T19:13:38.382Z,5.40
2018-01-18T19:16:07.113Z,5.40
2018-01-18T19:18:37.041Z,5.40
2018-01-18T19:21:05.770Z,5.40
2018-01-18T19:23:41.805Z,5.40
2018-01-18T19:26:10.379Z,5.40
2018-01-18T19:28:39.669Z,5.40
2018-01-18T19:31:08.101Z,5.40
2018-01-18T19:33:38.626Z,5.30
2018-01-18T19:36:07.875Z,5.30
2018-01-18T19:38:37.086Z,5.20
2018-01-18T19:41:05.586Z,5.20
2018-01-18T19:43:34.006Z,5.10
2018-01-18T19:46:02.519Z,5.10
2018-01-18T19:48:31.126Z,5.00
2018-01-18T19:51:00.303Z,4.90
2018-01-18T19:53:28.679Z,4.90
2018-01-18T19:56:05.070Z,4.80
2018-01-18T19:58:34.396Z,4.70
2018-01-18T20:01:02.795Z,4.70
2018-01-18T20:03:31.345Z,4.80
2018-01-18T20:06:07.738Z,4.70
2018-01-18T20:08:36.408Z,4.70
2018-01-18T20:11:05.646Z,4.70
2018-01-18T20:13:34.003Z,4.70
2018-01-18T20:16:03.223Z,4.70
2018-01-18T20:18:31.600Z,4.60
2018-01-18T20:21:00.042Z,4.60
2018-01-18T20:23:28.527Z,4.60
2018-01-18T20:25:56.958Z,4.60
2018-01-18T20:28:25.352Z,4.50
2018-01-18T20:30:53.869Z,4.50
2018-01-18T20:33:22.264Z,4.40
2018-01-18T20:35:50.646Z,4.40
2018-01-18T20:38:19.093Z,4.40
2018-01-18T20:40:48.350Z,4.40
2018-01-18T20:43:16.722Z,4.30
2018-01-18T20:45:45.538Z,4.30
2018-01-18T20:48:14.785Z,4.20
2018-01-18T20:50:43.175Z,4.20
2018-01-18T20:53:18.869Z,4.20
2018-01-18T20:55:48.269Z,4.20
2018-01-18T20:58:17.468Z,4.20
2018-01-18T21:00:46.656Z,4.20
2018-01-18T21:03:22.727Z,4.10
2018-01-18T21:05:52.203Z,4.20
2018-01-18T21:08:20.615Z,4.20
2018-01-18T21:10:48.986Z,4.20
2018-01-18T21:13:19.399Z,4.10
2018-01-18T21:15:47.743Z,4.10
2018-01-18T21:18:27.937Z,4.10
2018-01-18T21:20:56.485Z,4.10
2018-01-18T21:23:26.177Z,4.00
2018-01-18T21:25:54.667Z,4.00
2018-01-18T21:28:24.149Z,4.00
2018-01-18T21:30:52.511Z,4.00
2018-01-18T21:33:20.952Z,3.90
2018-01-18T21:35:50.436Z,3.80
2018-01-18T21:38:18.813Z,3.80
2018-01-18T21:40:47.221Z,3.80
2018-01-18T21:43:23.632Z,3.70
2018-01-18T21:45:52.059Z,3.60
2018-01-18T21:48:21.368Z,3.60
2018-01-18T21:50:49.943Z,3.60
2018-01-18T21:53:19.116Z,3.70
2018-01-18T21:55:47.553Z,3.60
2018-01-18T21:58:16.824Z,3.60
2018-01-18T22:00:52.547Z,3.60
2018-01-18T22:03:20.960Z,3.60
2018-01-18T22:05:50.070Z,3.60
2018-01-18T22:08:18.736Z,3.60
2018-01-18T22:10:47.090Z,3.60
2018-01-18T22:13:15.702Z,3.70
2018-01-18T22:15:44.329Z,3.70
2018-01-18T22:18:12.749Z,3.80
2018-01-18T22:20:41.149Z,3.80
2018-01-18T22:23:09.688Z,3.80
2018-01-18T22:25:38.107Z,3.90
2018-01-18T22:28:06.505Z,3.90
2018-01-18T22:30:35.055Z,4.00
2018-01-18T22:33:04.198Z,4.00
2018-01-18T22:35:32.595Z,4.00
2018-01-18T22:38:01.030Z,4.00
2018-01-18T22:40:30.154Z,4.10
2018-01-18T22:42:58.580Z,4.10
2018-01-18T22:45:27.216Z,4.10
2018-01-18T22:47:55.635Z,4.10
2018-01-18T22:50:24.017Z,4.10
2018-01-18T22:52:52.624Z,4.10
2018-01-18T22:55:21.028Z,4.10
2018-01-18T22:57:49.411Z,4.00
2018-01-18T23:00:19.427Z,4.00
2018-01-18T23:02:47.916Z,4.00
2018-01-18T23:05:16.344Z,3.90
2018-01-18T23:07:44.947Z,3.90
2018-01-18T23:10:13.401Z,3.90
2018-01-18T23:12:41.774Z,3.90
2018-01-18T23:15:18.026Z,3.80
2018-01-18T23:17:46.450Z,3.80
2018-01-18T23:20:14.852Z,3.80
2018-01-18T23:22:43.266Z,3.80
2018-01-18T23:25:20.019Z,3.80
2018-01-18T23:27:48.773Z,3.80
2018-01-18T23:30:17.189Z,3.80
2018-01-18T23:32:45.595Z,3.80
2018-01-18T23:35:14.907Z,3.80
2018-01-18T23:37:44.242Z,3.80
2018-01-18T23:40:13.396Z,3.70
2018-01-18T23:42:49.185Z,3.70
2018-01-18T23:45:18.383Z,3.60
2018-01-18T23:47:54.295Z,3.60
2018-01-18T23:50:22.803Z,3.60
2018-01-18T23:52:55.202Z,3.60
2018-01-18T23:55:31.635Z,3.60
2018-01-18T23:58:07.615Z,3.60
